sensor_id;sensor_type;location;lat;lon;timestamp;P1;durP1;ratioP1;P2;durP2;ratioP2
83103;SDS011;72975;48.134;11.630;2024-03-22T00:02:10;14.60;;;7.30;;
83103;SDS011;72975;48.134;11.630;2024-03-22T00:05:04;13.18;;;7.10;;
83103;SDS011;72975;48.134;11.630;2024-03-22T00:07:49;13.50;;;7.25;;
83103;SDS011;72975;48.134;11.630;2024-03-22T00:10:29;14.98;;;7.43;;
83103;SDS011;72975;48.134;11.630;2024-03-22T00:13:20;15.60;;;8.15;;
83103;SDS011;72975;48.134;11.630;2024-03-22T00:16:18;17.25;;;8.15;;
83103;SDS011;72975;48.134;11.630;2024-03-22T00:19:18;13.73;;;7.47;;
83103;SDS011;72975;48.134;11.630;2024-03-22T00:21:50;14.15;;;7.63;;
83103;SDS011;72975;48.134;11.630;2024-03-22T00:24:23;13.25;;;7.18;;
83103;SDS011;72975;48.134;11.630;2024-03-22T00:27:02;14.00;;;7.50;;
83103;SDS011;72975;48.134;11.630;2024-03-22T00:29:46;13.73;;;7.22;;
83103;SDS011;72975;48.134;11.630;2024-03-22T00:32:24;13.13;;;7.07;;
83103;SDS011;72975;48.134;11.630;2024-03-22T00:34:54;14.80;;;7.40;;
83103;SDS011;72975;48.134;11.630;2024-03-22T00:37:23;12.80;;;7.60;;
83103;SDS011;72975;48.134;11.630;2024-03-22T00:40:18;13.20;;;6.38;;
83103;SDS011;72975;48.134;11.630;2024-03-22T00:42:46;11.05;;;6.78;;
83103;SDS011;72975;48.134;11.630;2024-03-22T00:45:29;13.70;;;6.68;;
83103;SDS011;72975;48.134;11.630;2024-03-22T00:48:05;12.82;;;7.25;;
83103;SDS011;72975;48.134;11.630;2024-03-22T00:50:35;13.52;;;6.80;;
83103;SDS011;72975;48.134;11.630;2024-03-22T00:53:08;12.48;;;7.40;;
83103;SDS011;72975;48.134;11.630;2024-03-22T00:55:47;14.73;;;7.57;;
83103;SDS011;72975;48.134;11.630;2024-03-22T00:58:22;15.10;;;7.20;;
83103;SDS011;72975;48.134;11.630;2024-03-22T01:00:56;15.77;;;8.13;;
83103;SDS011;72975;48.134;11.630;2024-03-22T01:03:42;13.25;;;6.85;;
83103;SDS011;72975;48.134;11.630;2024-03-22T01:06:18;17.30;;;7.25;;
83103;SDS011;72975;48.134;11.630;2024-03-22T01:08:49;13.90;;;6.85;;
83103;SDS011;72975;48.134;11.630;2024-03-22T01:11:37;15.88;;;8.10;;
83103;SDS011;72975;48.134;11.630;2024-03-22T01:14:13;13.85;;;8.35;;
83103;SDS011;72975;48.134;11.630;2024-03-22T01:16:53;13.80;;;7.18;;
83103;SDS011;72975;48.134;11.630;2024-03-22T01:19:55;14.60;;;7.47;;
83103;SDS011;72975;48.134;11.630;2024-03-22T01:22:25;13.55;;;7.13;;
83103;SDS011;72975;48.134;11.630;2024-03-22T01:25:02;16.17;;;7.82;;
83103;SDS011;72975;48.134;11.630;2024-03-22T01:27:35;15.23;;;7.82;;
83103;SDS011;72975;48.134;11.630;2024-03-22T01:30:10;14.57;;;8.38;;
83103;SDS011;72975;48.134;11.630;2024-03-22T01:32:40;14.82;;;7.80;;
83103;SDS011;72975;48.134;11.630;2024-03-22T01:35:11;14.38;;;8.10;;
83103;SDS011;72975;48.134;11.630;2024-03-22T01:37:43;14.52;;;7.32;;
83103;SDS011;72975;48.134;11.630;2024-03-22T01:40:13;15.00;;;7.57;;
83103;SDS011;72975;48.134;11.630;2024-03-22T01:42:43;15.23;;;8.30;;
83103;SDS011;72975;48.134;11.630;2024-03-22T01:45:23;14.60;;;7.53;;
83103;SDS011;72975;48.134;11.630;2024-03-22T01:48:00;12.90;;;6.57;;
83103;SDS011;72975;48.134;11.630;2024-03-22T01:50:34;13.98;;;7.43;;
83103;SDS011;72975;48.134;11.630;2024-03-22T01:53:12;16.58;;;7.80;;
83103;SDS011;72975;48.134;11.630;2024-03-22T01:55:43;13.13;;;7.43;;
83103;SDS011;72975;48.134;11.630;2024-03-22T01:58:16;14.85;;;7.20;;
83103;SDS011;72975;48.134;11.630;2024-03-22T02:03:54;17.42;;;8.23;;
83103;SDS011;72975;48.134;11.630;2024-03-22T02:06:32;15.80;;;8.38;;
83103;SDS011;72975;48.134;11.630;2024-03-22T02:08:59;14.35;;;7.10;;
83103;SDS011;72975;48.134;11.630;2024-03-22T02:11:43;14.15;;;7.13;;
83103;SDS011;72975;48.134;11.630;2024-03-22T02:14:12;16.00;;;8.05;;
83103;SDS011;72975;48.134;11.630;2024-03-22T02:16:55;16.95;;;8.23;;
83103;SDS011;72975;48.134;11.630;2024-03-22T02:19:32;15.73;;;7.85;;
83103;SDS011;72975;48.134;11.630;2024-03-22T02:22:21;13.27;;;7.43;;
83103;SDS011;72975;48.134;11.630;2024-03-22T02:25:10;13.65;;;7.05;;
83103;SDS011;72975;48.134;11.630;2024-03-22T02:27:53;12.25;;;7.13;;
83103;SDS011;72975;48.134;11.630;2024-03-22T02:30:35;16.33;;;8.32;;
83103;SDS011;72975;48.134;11.630;2024-03-22T02:33:07;13.88;;;7.68;;
83103;SDS011;72975;48.134;11.630;2024-03-22T02:35:40;15.52;;;8.45;;
83103;SDS011;72975;48.134;11.630;2024-03-22T02:38:18;17.13;;;8.55;;
83103;SDS011;72975;48.134;11.630;2024-03-22T02:40:52;17.42;;;9.10;;
83103;SDS011;72975;48.134;11.630;2024-03-22T02:43:24;15.35;;;8.40;;
83103;SDS011;72975;48.134;11.630;2024-03-22T02:45:58;17.48;;;9.15;;
83103;SDS011;72975;48.134;11.630;2024-03-22T02:48:37;16.75;;;9.43;;
83103;SDS011;72975;48.134;11.630;2024-03-22T02:51:14;17.50;;;8.30;;
83103;SDS011;72975;48.134;11.630;2024-03-22T02:53:50;19.95;;;8.43;;
83103;SDS011;72975;48.134;11.630;2024-03-22T02:56:17;19.15;;;9.05;;
83103;SDS011;72975;48.134;11.630;2024-03-22T02:58:59;16.67;;;8.07;;
83103;SDS011;72975;48.134;11.630;2024-03-22T03:04:56;16.85;;;8.50;;
83103;SDS011;72975;48.134;11.630;2024-03-22T03:08:02;15.68;;;8.13;;
83103;SDS011;72975;48.134;11.630;2024-03-22T03:10:40;18.25;;;8.07;;
83103;SDS011;72975;48.134;11.630;2024-03-22T03:13:12;16.02;;;8.38;;
83103;SDS011;72975;48.134;11.630;2024-03-22T03:15:45;18.00;;;8.73;;
83103;SDS011;72975;48.134;11.630;2024-03-22T03:18:14;14.88;;;8.43;;
83103;SDS011;72975;48.134;11.630;2024-03-22T03:20:46;14.80;;;8.73;;
83103;SDS011;72975;48.134;11.630;2024-03-22T03:23:27;17.63;;;8.25;;
83103;SDS011;72975;48.134;11.630;2024-03-22T03:25:54;15.68;;;8.00;;
83103;SDS011;72975;48.134;11.630;2024-03-22T03:28:21;18.10;;;8.98;;
83103;SDS011;72975;48.134;11.630;2024-03-22T03:31:19;16.98;;;8.52;;
83103;SDS011;72975;48.134;11.630;2024-03-22T03:33:51;16.85;;;8.35;;
83103;SDS011;72975;48.134;11.630;2024-03-22T03:36:32;16.90;;;8.43;;
83103;SDS011;72975;48.134;11.630;2024-03-22T03:39:25;17.88;;;8.13;;
83103;SDS011;72975;48.134;11.630;2024-03-22T03:41:57;17.33;;;7.55;;
83103;SDS011;72975;48.134;11.630;2024-03-22T03:44:45;17.67;;;8.02;;
83103;SDS011;72975;48.134;11.630;2024-03-22T03:47:20;16.08;;;7.85;;
83103;SDS011;72975;48.134;11.630;2024-03-22T03:49:49;16.42;;;8.23;;
83103;SDS011;72975;48.134;11.630;2024-03-22T03:52:36;16.52;;;8.52;;
83103;SDS011;72975;48.134;11.630;2024-03-22T03:55:06;16.45;;;8.15;;
83103;SDS011;72975;48.134;11.630;2024-03-22T03:57:33;21.38;;;8.32;;
83103;SDS011;72975;48.134;11.630;2024-03-22T04:00:05;18.75;;;8.80;;
83103;SDS011;72975;48.134;11.630;2024-03-22T04:02:33;18.13;;;8.77;;
83103;SDS011;72975;48.134;11.630;2024-03-22T04:05:20;17.55;;;8.48;;
83103;SDS011;72975;48.134;11.630;2024-03-22T04:08:09;17.42;;;7.80;;
83103;SDS011;72975;48.134;11.630;2024-03-22T04:10:57;16.25;;;7.88;;
83103;SDS011;72975;48.134;11.630;2024-03-22T04:13:32;13.75;;;7.65;;
83103;SDS011;72975;48.134;11.630;2024-03-22T04:15:59;16.17;;;8.23;;
83103;SDS011;72975;48.134;11.630;2024-03-22T04:18:26;15.73;;;7.82;;
83103;SDS011;72975;48.134;11.630;2024-03-22T04:20:58;17.80;;;8.18;;
83103;SDS011;72975;48.134;11.630;2024-03-22T04:23:44;14.07;;;7.57;;
83103;SDS011;72975;48.134;11.630;2024-03-22T04:26:34;15.65;;;7.90;;
83103;SDS011;72975;48.134;11.630;2024-03-22T04:29:15;17.95;;;7.78;;
83103;SDS011;72975;48.134;11.630;2024-03-22T04:31:45;14.30;;;7.35;;
83103;SDS011;72975;48.134;11.630;2024-03-22T04:34:15;12.75;;;7.07;;
83103;SDS011;72975;48.134;11.630;2024-03-22T04:36:50;13.50;;;7.20;;
83103;SDS011;72975;48.134;11.630;2024-03-22T04:39:23;14.10;;;8.32;;
83103;SDS011;72975;48.134;11.630;2024-03-22T04:41:57;14.77;;;6.88;;
83103;SDS011;72975;48.134;11.630;2024-03-22T04:44:30;13.27;;;6.82;;
83103;SDS011;72975;48.134;11.630;2024-03-22T04:47:13;14.80;;;7.75;;
83103;SDS011;72975;48.134;11.630;2024-03-22T04:50:05;15.50;;;7.38;;
83103;SDS011;72975;48.134;11.630;2024-03-22T04:52:36;15.68;;;7.25;;
83103;SDS011;72975;48.134;11.630;2024-03-22T04:55:10;18.92;;;7.28;;
83103;SDS011;72975;48.134;11.630;2024-03-22T04:57:41;17.67;;;7.85;;
83103;SDS011;72975;48.134;11.630;2024-03-22T05:00:49;12.73;;;7.30;;
83103;SDS011;72975;48.134;11.630;2024-03-22T05:03:21;14.02;;;7.40;;
83103;SDS011;72975;48.134;11.630;2024-03-22T05:05:49;14.10;;;7.05;;
83103;SDS011;72975;48.134;11.630;2024-03-22T05:08:18;13.80;;;6.53;;
83103;SDS011;72975;48.134;11.630;2024-03-22T05:10:48;12.35;;;6.75;;
83103;SDS011;72975;48.134;11.630;2024-03-22T05:13:35;12.70;;;6.88;;
83103;SDS011;72975;48.134;11.630;2024-03-22T05:16:08;12.57;;;6.75;;
83103;SDS011;72975;48.134;11.630;2024-03-22T05:19:02;13.75;;;7.25;;
83103;SDS011;72975;48.134;11.630;2024-03-22T05:21:41;12.80;;;6.13;;
83103;SDS011;72975;48.134;11.630;2024-03-22T05:24:14;14.20;;;7.47;;
83103;SDS011;72975;48.134;11.630;2024-03-22T05:26:57;13.38;;;6.60;;
83103;SDS011;72975;48.134;11.630;2024-03-22T05:29:51;11.95;;;6.32;;
83103;SDS011;72975;48.134;11.630;2024-03-22T05:32:27;14.40;;;7.60;;
83103;SDS011;72975;48.134;11.630;2024-03-22T05:34:59;13.23;;;6.53;;
83103;SDS011;72975;48.134;11.630;2024-03-22T05:37:46;14.95;;;6.28;;
83103;SDS011;72975;48.134;11.630;2024-03-22T05:40:25;14.85;;;7.03;;
83103;SDS011;72975;48.134;11.630;2024-03-22T05:43:04;12.18;;;6.43;;
83103;SDS011;72975;48.134;11.630;2024-03-22T05:45:32;12.43;;;6.72;;
83103;SDS011;72975;48.134;11.630;2024-03-22T05:48:12;11.80;;;6.20;;
83103;SDS011;72975;48.134;11.630;2024-03-22T05:50:40;10.70;;;6.07;;
83103;SDS011;72975;48.134;11.630;2024-03-22T05:53:07;14.63;;;7.00;;
83103;SDS011;72975;48.134;11.630;2024-03-22T05:55:41;14.48;;;6.97;;
83103;SDS011;72975;48.134;11.630;2024-03-22T05:58:14;14.23;;;7.72;;
83103;SDS011;72975;48.134;11.630;2024-03-22T06:00:52;14.48;;;6.82;;
83103;SDS011;72975;48.134;11.630;2024-03-22T06:03:35;14.10;;;6.22;;
83103;SDS011;72975;48.134;11.630;2024-03-22T06:06:13;12.95;;;5.93;;
83103;SDS011;72975;48.134;11.630;2024-03-22T06:08:59;13.15;;;6.07;;
83103;SDS011;72975;48.134;11.630;2024-03-22T06:11:31;12.45;;;6.78;;
83103;SDS011;72975;48.134;11.630;2024-03-22T06:14:10;10.40;;;5.97;;
83103;SDS011;72975;48.134;11.630;2024-03-22T06:17:13;10.35;;;6.30;;
83103;SDS011;72975;48.134;11.630;2024-03-22T06:19:48;12.07;;;6.22;;
83103;SDS011;72975;48.134;11.630;2024-03-22T06:26:41;13.90;;;6.45;;
83103;SDS011;72975;48.134;11.630;2024-03-22T06:29:53;12.90;;;6.13;;
83103;SDS011;72975;48.134;11.630;2024-03-22T06:32:49;14.18;;;6.82;;
83103;SDS011;72975;48.134;11.630;2024-03-22T06:35:56;21.13;;;6.97;;
83103;SDS011;72975;48.134;11.630;2024-03-22T06:38:53;15.00;;;7.13;;
83103;SDS011;72975;48.134;11.630;2024-03-22T06:41:50;15.07;;;6.60;;
83103;SDS011;72975;48.134;11.630;2024-03-22T06:47:38;14.55;;;6.38;;
83103;SDS011;72975;48.134;11.630;2024-03-22T06:50:20;11.57;;;5.55;;
83103;SDS011;72975;48.134;11.630;2024-03-22T06:53:28;11.35;;;6.28;;
83103;SDS011;72975;48.134;11.630;2024-03-22T06:56:21;13.50;;;6.70;;
83103;SDS011;72975;48.134;11.630;2024-03-22T06:59:43;15.10;;;5.50;;
83103;SDS011;72975;48.134;11.630;2024-03-22T07:02:27;11.57;;;6.35;;
83103;SDS011;72975;48.134;11.630;2024-03-22T07:05:31;12.07;;;5.65;;
83103;SDS011;72975;48.134;11.630;2024-03-22T07:12:15;11.98;;;5.13;;
83103;SDS011;72975;48.134;11.630;2024-03-22T07:15:05;10.13;;;5.50;;
83103;SDS011;72975;48.134;11.630;2024-03-22T07:18:28;8.23;;;4.57;;
83103;SDS011;72975;48.134;11.630;2024-03-22T07:24:46;8.77;;;4.80;;
83103;SDS011;72975;48.134;11.630;2024-03-22T07:27:27;8.52;;;5.15;;
83103;SDS011;72975;48.134;11.630;2024-03-22T07:30:30;9.75;;;4.93;;
83103;SDS011;72975;48.134;11.630;2024-03-22T07:33:50;10.23;;;5.25;;
83103;SDS011;72975;48.134;11.630;2024-03-22T07:36:49;9.10;;;4.65;;
83103;SDS011;72975;48.134;11.630;2024-03-22T07:40:28;9.13;;;5.38;;
83103;SDS011;72975;48.134;11.630;2024-03-22T07:43:49;7.50;;;4.85;;
83103;SDS011;72975;48.134;11.630;2024-03-22T07:46:31;11.40;;;5.43;;
83103;SDS011;72975;48.134;11.630;2024-03-22T07:49:19;11.85;;;5.03;;
83103;SDS011;72975;48.134;11.630;2024-03-22T07:52:18;10.48;;;5.43;;
83103;SDS011;72975;48.134;11.630;2024-03-22T07:58:35;8.80;;;4.88;;
83103;SDS011;72975;48.134;11.630;2024-03-22T08:01:48;11.73;;;5.20;;
83103;SDS011;72975;48.134;11.630;2024-03-22T08:04:59;9.85;;;4.90;;
83103;SDS011;72975;48.134;11.630;2024-03-22T08:08:30;10.30;;;4.95;;
83103;SDS011;72975;48.134;11.630;2024-03-22T08:11:51;9.25;;;5.57;;
83103;SDS011;72975;48.134;11.630;2024-03-22T08:18:36;7.97;;;5.00;;
83103;SDS011;72975;48.134;11.630;2024-03-22T08:22:07;8.30;;;4.32;;
83103;SDS011;72975;48.134;11.630;2024-03-22T08:25:00;9.60;;;4.80;;
83103;SDS011;72975;48.134;11.630;2024-03-22T08:28:08;10.15;;;5.03;;
83103;SDS011;72975;48.134;11.630;2024-03-22T08:31:38;8.60;;;4.60;;
83103;SDS011;72975;48.134;11.630;2024-03-22T08:37:48;8.95;;;5.10;;
83103;SDS011;72975;48.134;11.630;2024-03-22T08:40:44;9.60;;;4.90;;
83103;SDS011;72975;48.134;11.630;2024-03-22T08:46:25;8.38;;;4.65;;
83103;SDS011;72975;48.134;11.630;2024-03-22T08:49:29;9.13;;;4.90;;
83103;SDS011;72975;48.134;11.630;2024-03-22T08:52:52;9.13;;;4.95;;
83103;SDS011;72975;48.134;11.630;2024-03-22T08:56:09;9.27;;;5.03;;
83103;SDS011;72975;48.134;11.630;2024-03-22T08:58:56;8.52;;;4.90;;
83103;SDS011;72975;48.134;11.630;2024-03-22T09:01:47;7.72;;;5.18;;
83103;SDS011;72975;48.134;11.630;2024-03-22T09:04:56;10.60;;;4.88;;
83103;SDS011;72975;48.134;11.630;2024-03-22T09:11:48;8.38;;;4.25;;
83103;SDS011;72975;48.134;11.630;2024-03-22T09:14:47;7.55;;;4.32;;
83103;SDS011;72975;48.134;11.630;2024-03-22T09:17:57;9.48;;;4.75;;
83103;SDS011;72975;48.134;11.630;2024-03-22T09:20:51;7.05;;;4.80;;
83103;SDS011;72975;48.134;11.630;2024-03-22T09:23:51;8.10;;;4.57;;
83103;SDS011;72975;48.134;11.630;2024-03-22T09:26:50;7.57;;;4.30;;
83103;SDS011;72975;48.134;11.630;2024-03-22T09:30:13;7.97;;;4.75;;
83103;SDS011;72975;48.134;11.630;2024-03-22T09:32:50;7.38;;;4.00;;
83103;SDS011;72975;48.134;11.630;2024-03-22T09:35:34;7.43;;;4.75;;
83103;SDS011;72975;48.134;11.630;2024-03-22T09:38:25;8.27;;;4.50;;
83103;SDS011;72975;48.134;11.630;2024-03-22T09:41:14;6.88;;;4.57;;
83103;SDS011;72975;48.134;11.630;2024-03-22T09:44:04;7.57;;;4.55;;
83103;SDS011;72975;48.134;11.630;2024-03-22T09:47:01;9.00;;;4.50;;
83103;SDS011;72975;48.134;11.630;2024-03-22T09:50:10;8.57;;;4.10;;
83103;SDS011;72975;48.134;11.630;2024-03-22T09:53:20;7.78;;;3.90;;
83103;SDS011;72975;48.134;11.630;2024-03-22T09:56:02;6.68;;;4.00;;
83103;SDS011;72975;48.134;11.630;2024-03-22T09:58:53;6.55;;;3.75;;
83103;SDS011;72975;48.134;11.630;2024-03-22T10:01:56;9.65;;;3.83;;
83103;SDS011;72975;48.134;11.630;2024-03-22T10:05:11;6.53;;;3.95;;
83103;SDS011;72975;48.134;11.630;2024-03-22T10:07:47;5.40;;;3.25;;
83103;SDS011;72975;48.134;11.630;2024-03-22T10:14:14;6.45;;;3.20;;
83103;SDS011;72975;48.134;11.630;2024-03-22T10:17:41;6.07;;;3.80;;
83103;SDS011;72975;48.134;11.630;2024-03-22T10:23:56;4.60;;;3.40;;
83103;SDS011;72975;48.134;11.630;2024-03-22T10:26:39;8.15;;;3.80;;
83103;SDS011;72975;48.134;11.630;2024-03-22T10:30:21;6.30;;;3.67;;
83103;SDS011;72975;48.134;11.630;2024-03-22T10:33:18;6.97;;;3.88;;
83103;SDS011;72975;48.134;11.630;2024-03-22T10:40:05;6.93;;;3.58;;
83103;SDS011;72975;48.134;11.630;2024-03-22T10:49:41;7.30;;;4.07;;
83103;SDS011;72975;48.134;11.630;2024-03-22T10:56:04;6.32;;;3.30;;
83103;SDS011;72975;48.134;11.630;2024-03-22T10:59:13;6.38;;;3.83;;
83103;SDS011;72975;48.134;11.630;2024-03-22T11:02:16;6.72;;;3.63;;
83103;SDS011;72975;48.134;11.630;2024-03-22T11:12:53;4.38;;;2.78;;
83103;SDS011;72975;48.134;11.630;2024-03-22T11:16:06;6.32;;;3.88;;
83103;SDS011;72975;48.134;11.630;2024-03-22T11:40:51;8.20;;;3.80;;
83103;SDS011;72975;48.134;11.630;2024-03-22T11:52:02;7.38;;;3.60;;
83103;SDS011;72975;48.134;11.630;2024-03-22T11:55:30;5.90;;;3.75;;
83103;SDS011;72975;48.134;11.630;2024-03-22T12:10:02;10.23;;;5.82;;
83103;SDS011;72975;48.134;11.630;2024-03-22T12:13:07;5.88;;;4.03;;
83103;SDS011;72975;48.134;11.630;2024-03-22T12:16:15;7.32;;;4.03;;
83103;SDS011;72975;48.134;11.630;2024-03-22T12:19:49;5.68;;;3.85;;
83103;SDS011;72975;48.134;11.630;2024-03-22T12:31:09;7.30;;;3.85;;
83103;SDS011;72975;48.134;11.630;2024-03-22T12:34:35;7.57;;;3.35;;
83103;SDS011;72975;48.134;11.630;2024-03-22T16:12:41;3.08;;;1.20;;
83103;SDS011;72975;48.134;11.630;2024-03-22T16:15:56;4.72;;;0.90;;
83103;SDS011;72975;48.134;11.630;2024-03-22T16:19:00;4.13;;;1.35;;
83103;SDS011;72975;48.134;11.630;2024-03-22T16:21:48;3.15;;;1.13;;
83103;SDS011;72975;48.134;11.630;2024-03-22T16:24:55;4.35;;;1.48;;
83103;SDS011;72975;48.134;11.630;2024-03-22T16:31:18;3.03;;;1.17;;
83103;SDS011;72975;48.134;11.630;2024-03-22T16:34:20;2.60;;;1.00;;
83103;SDS011;72975;48.134;11.630;2024-03-22T16:40:24;3.42;;;1.35;;
83103;SDS011;72975;48.134;11.630;2024-03-22T16:43:00;4.05;;;1.30;;
83103;SDS011;72975;48.134;11.630;2024-03-22T16:46:09;5.38;;;1.65;;
83103;SDS011;72975;48.134;11.630;2024-03-22T16:49:02;4.32;;;1.48;;
83103;SDS011;72975;48.134;11.630;2024-03-22T16:52:05;4.93;;;1.60;;
83103;SDS011;72975;48.134;11.630;2024-03-22T16:55:06;4.10;;;1.65;;
83103;SDS011;72975;48.134;11.630;2024-03-22T16:57:48;2.95;;;1.38;;
83103;SDS011;72975;48.134;11.630;2024-03-22T17:00:51;2.85;;;1.25;;
83103;SDS011;72975;48.134;11.630;2024-03-22T17:03:55;4.75;;;1.60;;
83103;SDS011;72975;48.134;11.630;2024-03-22T17:06:58;3.22;;;1.42;;
83103;SDS011;72975;48.134;11.630;2024-03-22T17:10:02;3.28;;;1.50;;
83103;SDS011;72975;48.134;11.630;2024-03-22T17:13:08;5.25;;;1.80;;
83103;SDS011;72975;48.134;11.630;2024-03-22T17:15:46;4.13;;;1.75;;
83103;SDS011;72975;48.134;11.630;2024-03-22T17:18:59;6.00;;;2.90;;
83103;SDS011;72975;48.134;11.630;2024-03-22T17:21:30;8.45;;;3.47;;
83103;SDS011;72975;48.134;11.630;2024-03-22T17:23:57;9.38;;;3.33;;
83103;SDS011;72975;48.134;11.630;2024-03-22T17:26:24;7.40;;;3.08;;
83103;SDS011;72975;48.134;11.630;2024-03-22T17:28:50;7.70;;;2.90;;
83103;SDS011;72975;48.134;11.630;2024-03-22T17:31:17;9.50;;;2.75;;
83103;SDS011;72975;48.134;11.630;2024-03-22T17:33:43;8.25;;;2.80;;
83103;SDS011;72975;48.134;11.630;2024-03-22T17:36:10;6.28;;;2.42;;
83103;SDS011;72975;48.134;11.630;2024-03-22T17:38:36;4.70;;;2.22;;
83103;SDS011;72975;48.134;11.630;2024-03-22T17:41:03;5.57;;;2.72;;
83103;SDS011;72975;48.134;11.630;2024-03-22T17:43:30;6.82;;;2.05;;
83103;SDS011;72975;48.134;11.630;2024-03-22T17:45:59;7.93;;;1.90;;
83103;SDS011;72975;48.134;11.630;2024-03-22T17:48:31;5.20;;;2.22;;
83103;SDS011;72975;48.134;11.630;2024-03-22T17:51:25;7.60;;;2.28;;
83103;SDS011;72975;48.134;11.630;2024-03-22T17:54:00;5.43;;;1.90;;
83103;SDS011;72975;48.134;11.630;2024-03-22T18:00:06;4.18;;;1.95;;
83103;SDS011;72975;48.134;11.630;2024-03-22T18:02:55;3.45;;;2.00;;
83103;SDS011;72975;48.134;11.630;2024-03-22T18:05:57;5.75;;;2.33;;
83103;SDS011;72975;48.134;11.630;2024-03-22T18:08:55;4.22;;;1.77;;
83103;SDS011;72975;48.134;11.630;2024-03-22T18:12:03;7.10;;;2.03;;
83103;SDS011;72975;48.134;11.630;2024-03-22T18:15:01;6.72;;;2.92;;
83103;SDS011;72975;48.134;11.630;2024-03-22T18:17:40;12.93;;;3.10;;
83103;SDS011;72975;48.134;11.630;2024-03-22T18:20:20;6.75;;;2.70;;
83103;SDS011;72975;48.134;11.630;2024-03-22T18:53:45;11.73;;;4.45;;
